sensor_id;sensor_type;location;lat;lon;timestamp;temperature;humidity
2389;DHT22;1205;47.984;7.668;2022-10-16T00:01:23;16.10;99.90
2389;DHT22;1205;47.984;7.668;2022-10-16T00:03:49;16.10;99.90
2389;DHT22;1205;47.984;7.668;2022-10-16T00:06:16;16.10;99.90
2389;DHT22;1205;47.984;7.668;2022-10-16T00:08:42;16.10;99.90
2389;DHT22;1205;47.984;7.668;2022-10-16T00:11:17;16.10;99.90
2389;DHT22;1205;47.984;7.668;2022-10-16T00:13:46;16.20;99.90
2389;DHT22;1205;47.984;7.668;2022-10-16T00:16:12;16.10;99.90
2389;DHT22;1205;47.984;7.668;2022-10-16T00:18:39;16.10;99.90
2389;DHT22;1205;47.984;7.668;2022-10-16T00:21:13;16.10;99.90
2389;DHT22;1205;47.984;7.668;2022-10-16T00:23:39;16.00;99.90
2389;DHT22;1205;47.984;7.668;2022-10-16T00:26:07;16.00;99.90
2389;DHT22;1205;47.984;7.668;2022-10-16T00:28:34;16.00;99.90
2389;DHT22;1205;47.984;7.668;2022-10-16T00:31:06;15.90;99.90
2389;DHT22;1205;47.984;7.668;2022-10-16T00:33:33;15.90;99.90
2389;DHT22;1205;47.984;7.668;2022-10-16T00:35:59;15.90;99.90
2389;DHT22;1205;47.984;7.668;2022-10-16T00:38:25;15.80;99.90
2389;DHT22;1205;47.984;7.668;2022-10-16T00:40:50;15.80;99.90
2389;DHT22;1205;47.984;7.668;2022-10-16T00:43:45;15.90;99.90
2389;DHT22;1205;47.984;7.668;2022-10-16T00:46:32;15.80;99.90
2389;DHT22;1205;47.984;7.668;2022-10-16T00:49:12;15.80;99.90
2389;DHT22;1205;47.984;7.668;2022-10-16T00:51:43;15.80;99.90
2389;DHT22;1205;47.984;7.668;2022-10-16T00:54:13;15.80;99.90
2389;DHT22;1205;47.984;7.668;2022-10-16T00:56:39;15.80;99.90
2389;DHT22;1205;47.984;7.668;2022-10-16T00:59:10;15.80;99.90
2389;DHT22;1205;47.984;7.668;2022-10-16T01:01:39;15.80;99.90
2389;DHT22;1205;47.984;7.668;2022-10-16T01:04:04;15.80;99.90
2389;DHT22;1205;47.984;7.668;2022-10-16T01:06:36;15.80;99.90
2389;DHT22;1205;47.984;7.668;2022-10-16T01:09:17;15.70;99.90
2389;DHT22;1205;47.984;7.668;2022-10-16T01:14:32;15.70;99.90
2389;DHT22;1205;47.984;7.668;2022-10-16T01:17:12;15.70;99.90
2389;DHT22;1205;47.984;7.668;2022-10-16T01:22:38;15.70;99.90
2389;DHT22;1205;47.984;7.668;2022-10-16T01:25:09;15.70;99.90
2389;DHT22;1205;47.984;7.668;2022-10-16T01:27:38;15.80;99.90
2389;DHT22;1205;47.984;7.668;2022-10-16T01:30:11;15.70;99.90
2389;DHT22;1205;47.984;7.668;2022-10-16T01:32:53;15.70;99.90
2389;DHT22;1205;47.984;7.668;2022-10-16T01:35:25;15.70;99.90
2389;DHT22;1205;47.984;7.668;2022-10-16T01:40:42;15.70;99.90
2389;DHT22;1205;47.984;7.668;2022-10-16T01:43:17;15.70;99.90
2389;DHT22;1205;47.984;7.668;2022-10-16T01:45:45;15.60;99.90
2389;DHT22;1205;47.984;7.668;2022-10-16T01:48:14;15.60;99.90
2389;DHT22;1205;47.984;7.668;2022-10-16T01:50:43;15.60;99.90
2389;DHT22;1205;47.984;7.668;2022-10-16T01:53:12;15.60;99.90
2389;DHT22;1205;47.984;7.668;2022-10-16T01:55:42;15.60;99.90
2389;DHT22;1205;47.984;7.668;2022-10-16T01:58:12;15.60;99.90
2389;DHT22;1205;47.984;7.668;2022-10-16T02:00:41;15.60;99.90
2389;DHT22;1205;47.984;7.668;2022-10-16T02:03:07;15.60;99.90
2389;DHT22;1205;47.984;7.668;2022-10-16T02:05:54;15.50;99.90
2389;DHT22;1205;47.984;7.668;2022-10-16T02:08:23;15.50;99.90
2389;DHT22;1205;47.984;7.668;2022-10-16T02:10:49;15.50;99.90
2389;DHT22;1205;47.984;7.668;2022-10-16T02:13:23;15.50;99.90
2389;DHT22;1205;47.984;7.668;2022-10-16T02:15:51;15.40;99.90
2389;DHT22;1205;47.984;7.668;2022-10-16T02:18:16;15.40;99.90
2389;DHT22;1205;47.984;7.668;2022-10-16T02:20:53;15.40;99.90
2389;DHT22;1205;47.984;7.668;2022-10-16T02:23:29;15.50;99.90
2389;DHT22;1205;47.984;7.668;2022-10-16T02:25:56;15.50;99.90
2389;DHT22;1205;47.984;7.668;2022-10-16T02:28:33;15.40;99.90
2389;DHT22;1205;47.984;7.668;2022-10-16T02:31:04;15.40;99.90
2389;DHT22;1205;47.984;7.668;2022-10-16T02:33:31;15.30;99.90
2389;DHT22;1205;47.984;7.668;2022-10-16T02:35:58;15.30;99.90
2389;DHT22;1205;47.984;7.668;2022-10-16T02:38:25;15.30;99.90
2389;DHT22;1205;47.984;7.668;2022-10-16T02:40:51;15.20;99.90
2389;DHT22;1205;47.984;7.668;2022-10-16T02:43:17;15.20;99.90
2389;DHT22;1205;47.984;7.668;2022-10-16T02:45:43;15.20;99.90
2389;DHT22;1205;47.984;7.668;2022-10-16T02:48:09;15.20;99.90
2389;DHT22;1205;47.984;7.668;2022-10-16T02:50:34;15.20;99.90
2389;DHT22;1205;47.984;7.668;2022-10-16T02:53:00;15.20;99.90
2389;DHT22;1205;47.984;7.668;2022-10-16T02:55:26;15.20;99.90
2389;DHT22;1205;47.984;7.668;2022-10-16T02:57:53;15.20;99.90
2389;DHT22;1205;47.984;7.668;2022-10-16T03:00:19;15.30;99.90
2389;DHT22;1205;47.984;7.668;2022-10-16T03:02:45;15.20;99.90
2389;DHT22;1205;47.984;7.668;2022-10-16T03:05:12;15.20;99.90
2389;DHT22;1205;47.984;7.668;2022-10-16T03:07:37;15.20;99.90
2389;DHT22;1205;47.984;7.668;2022-10-16T03:10:03;15.30;99.90
2389;DHT22;1205;47.984;7.668;2022-10-16T03:12:29;15.30;99.90
2389;DHT22;1205;47.984;7.668;2022-10-16T03:14:55;15.30;99.90
2389;DHT22;1205;47.984;7.668;2022-10-16T03:17:22;15.30;99.90
2389;DHT22;1205;47.984;7.668;2022-10-16T03:19:47;15.30;99.90
2389;DHT22;1205;47.984;7.668;2022-10-16T03:22:13;15.30;99.90
2389;DHT22;1205;47.984;7.668;2022-10-16T03:24:38;15.20;99.90
2389;DHT22;1205;47.984;7.668;2022-10-16T03:27:04;15.20;99.90
2389;DHT22;1205;47.984;7.668;2022-10-16T03:29:30;15.30;99.90
2389;DHT22;1205;47.984;7.668;2022-10-16T03:31:56;15.40;99.90
2389;DHT22;1205;47.984;7.668;2022-10-16T03:34:22;15.40;99.90
2389;DHT22;1205;47.984;7.668;2022-10-16T03:36:47;15.40;99.90
2389;DHT22;1205;47.984;7.668;2022-10-16T03:39:13;15.40;99.90
2389;DHT22;1205;47.984;7.668;2022-10-16T03:41:38;15.30;99.90
2389;DHT22;1205;47.984;7.668;2022-10-16T03:44:04;15.30;99.90
2389;DHT22;1205;47.984;7.668;2022-10-16T03:46:29;15.20;99.90
2389;DHT22;1205;47.984;7.668;2022-10-16T03:48:55;15.30;99.90
2389;DHT22;1205;47.984;7.668;2022-10-16T03:51:21;15.30;99.90
2389;DHT22;1205;47.984;7.668;2022-10-16T03:53:46;15.20;99.90
2389;DHT22;1205;47.984;7.668;2022-10-16T03:56:12;15.30;99.90
2389;DHT22;1205;47.984;7.668;2022-10-16T03:58:37;15.30;99.90
2389;DHT22;1205;47.984;7.668;2022-10-16T04:01:03;15.30;99.90
2389;DHT22;1205;47.984;7.668;2022-10-16T04:03:29;15.30;99.90
2389;DHT22;1205;47.984;7.668;2022-10-16T04:05:54;15.20;99.90
2389;DHT22;1205;47.984;7.668;2022-10-16T04:08:20;15.20;99.90
2389;DHT22;1205;47.984;7.668;2022-10-16T04:10:46;15.20;99.90
2389;DHT22;1205;47.984;7.668;2022-10-16T04:13:12;15.20;99.90
2389;DHT22;1205;47.984;7.668;2022-10-16T04:15:38;15.20;99.90
2389;DHT22;1205;47.984;7.668;2022-10-16T04:18:04;15.20;99.90
2389;DHT22;1205;47.984;7.668;2022-10-16T04:20:30;15.20;99.90
2389;DHT22;1205;47.984;7.668;2022-10-16T04:22:56;15.20;99.90
2389;DHT22;1205;47.984;7.668;2022-10-16T04:25:22;15.20;99.90
2389;DHT22;1205;47.984;7.668;2022-10-16T04:27:47;15.20;99.90
2389;DHT22;1205;47.984;7.668;2022-10-16T04:30:13;15.20;99.90
2389;DHT22;1205;47.984;7.668;2022-10-16T04:32:39;15.20;99.90
2389;DHT22;1205;47.984;7.668;2022-10-16T04:35:04;15.20;99.90
2389;DHT22;1205;47.984;7.668;2022-10-16T04:37:30;15.20;99.90
2389;DHT22;1205;47.984;7.668;2022-10-16T04:39:56;15.20;99.90
2389;DHT22;1205;47.984;7.668;2022-10-16T04:42:21;15.20;99.90
2389;DHT22;1205;47.984;7.668;2022-10-16T04:44:47;15.30;99.90
2389;DHT22;1205;47.984;7.668;2022-10-16T04:47:13;15.20;99.90
2389;DHT22;1205;47.984;7.668;2022-10-16T04:49:39;15.20;99.90
2389;DHT22;1205;47.984;7.668;2022-10-16T04:52:05;15.20;99.90
2389;DHT22;1205;47.984;7.668;2022-10-16T04:54:30;15.30;99.90
2389;DHT22;1205;47.984;7.668;2022-10-16T04:56:56;15.20;99.90
2389;DHT22;1205;47.984;7.668;2022-10-16T04:59:23;15.20;99.90
2389;DHT22;1205;47.984;7.668;2022-10-16T05:01:49;15.20;99.90
2389;DHT22;1205;47.984;7.668;2022-10-16T05:04:14;15.20;99.90
2389;DHT22;1205;47.984;7.668;2022-10-16T05:06:40;15.20;99.90
2389;DHT22;1205;47.984;7.668;2022-10-16T05:09:07;15.20;99.90
2389;DHT22;1205;47.984;7.668;2022-10-16T05:11:33;15.20;99.90
2389;DHT22;1205;47.984;7.668;2022-10-16T05:13:59;15.20;99.90
2389;DHT22;1205;47.984;7.668;2022-10-16T05:16:25;15.20;99.90
2389;DHT22;1205;47.984;7.668;2022-10-16T05:18:54;15.20;99.90
2389;DHT22;1205;47.984;7.668;2022-10-16T05:21:20;15.20;99.90
2389;DHT22;1205;47.984;7.668;2022-10-16T05:23:46;15.20;99.90
2389;DHT22;1205;47.984;7.668;2022-10-16T05:26:11;15.20;99.90
2389;DHT22;1205;47.984;7.668;2022-10-16T05:28:37;15.10;99.90
2389;DHT22;1205;47.984;7.668;2022-10-16T05:31:06;15.20;99.90
2389;DHT22;1205;47.984;7.668;2022-10-16T05:33:32;15.20;99.90
2389;DHT22;1205;47.984;7.668;2022-10-16T05:36:05;15.20;99.90
2389;DHT22;1205;47.984;7.668;2022-10-16T05:38:31;15.20;99.90
2389;DHT22;1205;47.984;7.668;2022-10-16T05:40:57;15.20;99.90
2389;DHT22;1205;47.984;7.668;2022-10-16T05:43:23;15.20;99.90
2389;DHT22;1205;47.984;7.668;2022-10-16T05:46:07;15.10;99.90
2389;DHT22;1205;47.984;7.668;2022-10-16T05:48:33;15.20;99.90
2389;DHT22;1205;47.984;7.668;2022-10-16T05:51:01;15.10;99.90
2389;DHT22;1205;47.984;7.668;2022-10-16T05:53:29;15.10;99.90
2389;DHT22;1205;47.984;7.668;2022-10-16T05:55:55;15.10;99.90
2389;DHT22;1205;47.984;7.668;2022-10-16T05:58:22;15.00;99.90
2389;DHT22;1205;47.984;7.668;2022-10-16T06:00:59;15.10;99.90
2389;DHT22;1205;47.984;7.668;2022-10-16T06:03:25;15.10;99.90
2389;DHT22;1205;47.984;7.668;2022-10-16T06:05:51;15.10;99.90
2389;DHT22;1205;47.984;7.668;2022-10-16T06:08:18;15.10;99.90
2389;DHT22;1205;47.984;7.668;2022-10-16T06:10:45;15.20;99.90
2389;DHT22;1205;47.984;7.668;2022-10-16T06:13:11;15.30;99.90
2389;DHT22;1205;47.984;7.668;2022-10-16T06:15:38;15.50;99.90
2389;DHT22;1205;47.984;7.668;2022-10-16T06:18:05;15.90;99.90
2389;DHT22;1205;47.984;7.668;2022-10-16T06:20:31;16.10;99.90
2389;DHT22;1205;47.984;7.668;2022-10-16T06:22:57;16.10;99.90
2389;DHT22;1205;47.984;7.668;2022-10-16T06:25:22;15.90;99.90
2389;DHT22;1205;47.984;7.668;2022-10-16T06:27:48;15.70;99.90
2389;DHT22;1205;47.984;7.668;2022-10-16T06:30:13;15.60;99.90
2389;DHT22;1205;47.984;7.668;2022-10-16T06:32:39;15.60;99.90
2389;DHT22;1205;47.984;7.668;2022-10-16T06:35:05;15.60;99.90
2389;DHT22;1205;47.984;7.668;2022-10-16T06:37:30;15.60;99.90
2389;DHT22;1205;47.984;7.668;2022-10-16T06:39:56;15.60;99.90
2389;DHT22;1205;47.984;7.668;2022-10-16T06:42:21;15.60;99.90
2389;DHT22;1205;47.984;7.668;2022-10-16T06:44:47;15.60;99.90
2389;DHT22;1205;47.984;7.668;2022-10-16T06:47:12;15.60;99.90
2389;DHT22;1205;47.984;7.668;2022-10-16T06:49:38;15.50;99.90
2389;DHT22;1205;47.984;7.668;2022-10-16T06:52:03;15.60;99.90
2389;DHT22;1205;47.984;7.668;2022-10-16T06:54:30;15.50;99.90
2389;DHT22;1205;47.984;7.668;2022-10-16T06:56:55;15.50;99.90
2389;DHT22;1205;47.984;7.668;2022-10-16T06:59:21;15.50;99.90
2389;DHT22;1205;47.984;7.668;2022-10-16T07:01:47;15.50;99.90
2389;DHT22;1205;47.984;7.668;2022-10-16T07:04:13;15.50;99.90
2389;DHT22;1205;47.984;7.668;2022-10-16T07:06:38;15.50;99.90
2389;DHT22;1205;47.984;7.668;2022-10-16T07:09:06;15.60;99.90
2389;DHT22;1205;47.984;7.668;2022-10-16T07:11:33;15.60;99.90
2389;DHT22;1205;47.984;7.668;2022-10-16T07:13:59;15.70;99.90
2389;DHT22;1205;47.984;7.668;2022-10-16T07:16:27;15.70;99.90
2389;DHT22;1205;47.984;7.668;2022-10-16T07:18:55;15.70;99.90
2389;DHT22;1205;47.984;7.668;2022-10-16T07:21:26;15.70;99.90
2389;DHT22;1205;47.984;7.668;2022-10-16T07:23:53;15.70;99.90
2389;DHT22;1205;47.984;7.668;2022-10-16T07:26:19;15.80;99.90
2389;DHT22;1205;47.984;7.668;2022-10-16T07:28:45;15.80;99.90
2389;DHT22;1205;47.984;7.668;2022-10-16T07:31:13;15.90;99.90
2389;DHT22;1205;47.984;7.668;2022-10-16T07:33:41;15.90;99.90
2389;DHT22;1205;47.984;7.668;2022-10-16T07:36:08;16.00;99.90
2389;DHT22;1205;47.984;7.668;2022-10-16T07:38:34;16.00;99.90
2389;DHT22;1205;47.984;7.668;2022-10-16T07:41:01;16.10;99.90
2389;DHT22;1205;47.984;7.668;2022-10-16T07:43:28;16.10;99.90
2389;DHT22;1205;47.984;7.668;2022-10-16T07:45:54;16.10;99.90
2389;DHT22;1205;47.984;7.668;2022-10-16T07:48:21;16.20;99.90
2389;DHT22;1205;47.984;7.668;2022-10-16T07:50:47;16.30;99.90
2389;DHT22;1205;47.984;7.668;2022-10-16T07:53:13;16.40;99.90
2389;DHT22;1205;47.984;7.668;2022-10-16T07:55:39;16.40;99.90
2389;DHT22;1205;47.984;7.668;2022-10-16T07:58:05;16.50;99.90
2389;DHT22;1205;47.984;7.668;2022-10-16T08:00:31;16.60;99.90
2389;DHT22;1205;47.984;7.668;2022-10-16T08:02:58;16.70;99.90
2389;DHT22;1205;47.984;7.668;2022-10-16T08:05:27;16.80;99.90
2389;DHT22;1205;47.984;7.668;2022-10-16T08:07:53;16.90;99.90
2389;DHT22;1205;47.984;7.668;2022-10-16T08:10:21;17.00;99.90
2389;DHT22;1205;47.984;7.668;2022-10-16T08:12:47;17.10;99.90
2389;DHT22;1205;47.984;7.668;2022-10-16T08:15:13;17.20;99.90
2389;DHT22;1205;47.984;7.668;2022-10-16T08:17:39;17.20;99.90
2389;DHT22;1205;47.984;7.668;2022-10-16T08:20:04;17.40;99.90
2389;DHT22;1205;47.984;7.668;2022-10-16T08:22:30;17.50;99.90
2389;DHT22;1205;47.984;7.668;2022-10-16T08:24:56;17.60;99.90
2389;DHT22;1205;47.984;7.668;2022-10-16T08:27:22;17.60;99.90
2389;DHT22;1205;47.984;7.668;2022-10-16T08:29:48;17.70;99.90
2389;DHT22;1205;47.984;7.668;2022-10-16T08:32:14;17.80;99.90
2389;DHT22;1205;47.984;7.668;2022-10-16T08:34:39;17.80;99.90
2389;DHT22;1205;47.984;7.668;2022-10-16T08:37:05;17.80;99.90
2389;DHT22;1205;47.984;7.668;2022-10-16T08:39:32;17.90;99.90
2389;DHT22;1205;47.984;7.668;2022-10-16T08:47:24;18.00;99.90
2389;DHT22;1205;47.984;7.668;2022-10-16T08:49:59;18.10;99.90
2389;DHT22;1205;47.984;7.668;2022-10-16T08:52:30;18.20;99.90
2389;DHT22;1205;47.984;7.668;2022-10-16T08:54:58;18.20;99.90
2389;DHT22;1205;47.984;7.668;2022-10-16T08:57:25;18.20;99.90
2389;DHT22;1205;47.984;7.668;2022-10-16T08:59:53;18.30;99.90
2389;DHT22;1205;47.984;7.668;2022-10-16T09:02:40;18.40;99.90
2389;DHT22;1205;47.984;7.668;2022-10-16T09:13:57;18.60;99.90
2389;DHT22;1205;47.984;7.668;2022-10-16T09:16:30;18.60;99.90
2389;DHT22;1205;47.984;7.668;2022-10-16T09:19:21;18.70;99.90
2389;DHT22;1205;47.984;7.668;2022-10-16T09:21:49;18.80;99.90
2389;DHT22;1205;47.984;7.668;2022-10-16T09:24:25;18.90;99.90
2389;DHT22;1205;47.984;7.668;2022-10-16T09:26:51;19.00;99.90
2389;DHT22;1205;47.984;7.668;2022-10-16T09:29:18;19.10;99.90
2389;DHT22;1205;47.984;7.668;2022-10-16T09:31:46;19.30;99.90
2389;DHT22;1205;47.984;7.668;2022-10-16T09:34:33;19.40;99.90
2389;DHT22;1205;47.984;7.668;2022-10-16T09:37:03;19.60;99.90
2389;DHT22;1205;47.984;7.668;2022-10-16T09:39:29;19.80;99.90
2389;DHT22;1205;47.984;7.668;2022-10-16T09:41:55;20.00;99.90
2389;DHT22;1205;47.984;7.668;2022-10-16T09:44:25;20.20;99.90
2389;DHT22;1205;47.984;7.668;2022-10-16T09:47:18;20.40;99.90
2389;DHT22;1205;47.984;7.668;2022-10-16T09:50:04;20.50;99.90
2389;DHT22;1205;47.984;7.668;2022-10-16T09:52:32;20.60;99.90
2389;DHT22;1205;47.984;7.668;2022-10-16T09:55:12;20.80;99.90
2389;DHT22;1205;47.984;7.668;2022-10-16T09:57:52;20.90;99.90
2389;DHT22;1205;47.984;7.668;2022-10-16T10:00:19;21.00;99.90
2389;DHT22;1205;47.984;7.668;2022-10-16T10:02:45;21.10;99.90
2389;DHT22;1205;47.984;7.668;2022-10-16T10:05:23;21.30;99.90
2389;DHT22;1205;47.984;7.668;2022-10-16T10:08:00;21.50;99.90
2389;DHT22;1205;47.984;7.668;2022-10-16T10:10:30;21.60;99.90
2389;DHT22;1205;47.984;7.668;2022-10-16T10:12:57;21.70;99.90
2389;DHT22;1205;47.984;7.668;2022-10-16T10:15:24;21.80;99.90
2389;DHT22;1205;47.984;7.668;2022-10-16T10:17:54;21.90;99.90
2389;DHT22;1205;47.984;7.668;2022-10-16T10:22:51;22.00;99.90
2389;DHT22;1205;47.984;7.668;2022-10-16T10:36:22;22.40;99.90
2389;DHT22;1205;47.984;7.668;2022-10-16T10:38:59;22.40;99.90
2389;DHT22;1205;47.984;7.668;2022-10-16T10:41:47;22.50;99.90
2389;DHT22;1205;47.984;7.668;2022-10-16T10:47:24;22.60;99.90
2389;DHT22;1205;47.984;7.668;2022-10-16T10:58:08;22.90;99.90
2389;DHT22;1205;47.984;7.668;2022-10-16T11:03:27;23.00;99.90
2389;DHT22;1205;47.984;7.668;2022-10-16T11:06:03;23.10;99.90
2389;DHT22;1205;47.984;7.668;2022-10-16T11:08:52;23.00;99.90
2389;DHT22;1205;47.984;7.668;2022-10-16T11:11:31;23.00;99.90
2389;DHT22;1205;47.984;7.668;2022-10-16T11:16:34;23.10;99.90
2389;DHT22;1205;47.984;7.668;2022-10-16T11:21:36;23.30;99.90
2389;DHT22;1205;47.984;7.668;2022-10-16T11:24:34;23.40;99.90
2389;DHT22;1205;47.984;7.668;2022-10-16T11:27:00;23.40;99.90
2389;DHT22;1205;47.984;7.668;2022-10-16T11:29:30;23.40;99.90
2389;DHT22;1205;47.984;7.668;2022-10-16T11:32:01;23.40;99.70
2389;DHT22;1205;47.984;7.668;2022-10-16T11:34:38;23.40;99.80
2389;DHT22;1205;47.984;7.668;2022-10-16T11:37:35;23.50;99.90
2389;DHT22;1205;47.984;7.668;2022-10-16T11:40:19;23.50;99.10
2389;DHT22;1205;47.984;7.668;2022-10-16T11:45:48;23.30;98.50
2389;DHT22;1205;47.984;7.668;2022-10-16T11:56:21;23.60;97.70
2389;DHT22;1205;47.984;7.668;2022-10-16T11:58:54;23.70;95.90
2389;DHT22;1205;47.984;7.668;2022-10-16T12:01:42;23.80;96.70
2389;DHT22;1205;47.984;7.668;2022-10-16T12:04:25;23.90;94.50
2389;DHT22;1205;47.984;7.668;2022-10-16T12:11:52;24.00;94.10
2389;DHT22;1205;47.984;7.668;2022-10-16T12:16:58;24.20;95.10
2389;DHT22;1205;47.984;7.668;2022-10-16T12:19:29;24.20;95.50
2389;DHT22;1205;47.984;7.668;2022-10-16T12:22:02;24.10;93.90
2389;DHT22;1205;47.984;7.668;2022-10-16T12:24:35;24.10;93.90
2389;DHT22;1205;47.984;7.668;2022-10-16T12:27:05;24.10;94.00
2389;DHT22;1205;47.984;7.668;2022-10-16T12:29:41;24.10;94.50
2389;DHT22;1205;47.984;7.668;2022-10-16T12:32:33;24.20;93.40
2389;DHT22;1205;47.984;7.668;2022-10-16T12:35:01;24.20;92.80
2389;DHT22;1205;47.984;7.668;2022-10-16T12:37:36;24.20;92.60
2389;DHT22;1205;47.984;7.668;2022-10-16T12:42:45;24.10;92.80
2389;DHT22;1205;47.984;7.668;2022-10-16T12:45:31;24.00;93.00
2389;DHT22;1205;47.984;7.668;2022-10-16T12:47:59;24.10;93.70
2389;DHT22;1205;47.984;7.668;2022-10-16T12:50:37;24.00;93.10
2389;DHT22;1205;47.984;7.668;2022-10-16T12:53:23;24.00;92.30
2389;DHT22;1205;47.984;7.668;2022-10-16T13:01:52;24.00;93.60
2389;DHT22;1205;47.984;7.668;2022-10-16T13:05:12;24.10;92.70
2389;DHT22;1205;47.984;7.668;2022-10-16T13:07:43;24.00;91.70
2389;DHT22;1205;47.984;7.668;2022-10-16T13:28:51;24.00;91.40
2389;DHT22;1205;47.984;7.668;2022-10-16T13:31:23;24.00;93.00
2389;DHT22;1205;47.984;7.668;2022-10-16T13:33:53;24.00;91.20
2389;DHT22;1205;47.984;7.668;2022-10-16T13:36:24;24.00;92.50
2389;DHT22;1205;47.984;7.668;2022-10-16T13:41:31;23.90;91.00
2389;DHT22;1205;47.984;7.668;2022-10-16T13:43:57;23.90;91.40
2389;DHT22;1205;47.984;7.668;2022-10-16T13:46:24;23.80;92.40
2389;DHT22;1205;47.984;7.668;2022-10-16T13:49:01;23.90;91.70
2389;DHT22;1205;47.984;7.668;2022-10-16T13:51:27;23.90;92.70
2389;DHT22;1205;47.984;7.668;2022-10-16T13:53:55;23.80;92.70
2389;DHT22;1205;47.984;7.668;2022-10-16T13:56:22;23.80;92.50
2389;DHT22;1205;47.984;7.668;2022-10-16T13:59:04;23.90;91.40
2389;DHT22;1205;47.984;7.668;2022-10-16T14:01:33;23.70;91.50
2389;DHT22;1205;47.984;7.668;2022-10-16T14:04:05;23.80;92.20
2389;DHT22;1205;47.984;7.668;2022-10-16T14:06:31;23.70;92.60
2389;DHT22;1205;47.984;7.668;2022-10-16T14:09:08;23.70;92.80
2389;DHT22;1205;47.984;7.668;2022-10-16T14:14:02;23.70;91.70
2389;DHT22;1205;47.984;7.668;2022-10-16T14:16:30;23.70;92.00
2389;DHT22;1205;47.984;7.668;2022-10-16T14:19:02;23.70;92.70
2389;DHT22;1205;47.984;7.668;2022-10-16T14:21:29;23.70;93.20
2389;DHT22;1205;47.984;7.668;2022-10-16T14:23:56;23.70;93.10
2389;DHT22;1205;47.984;7.668;2022-10-16T14:26:27;23.70;92.30
2389;DHT22;1205;47.984;7.668;2022-10-16T14:29:12;23.70;92.80
2389;DHT22;1205;47.984;7.668;2022-10-16T14:31:38;23.70;92.00
2389;DHT22;1205;47.984;7.668;2022-10-16T14:34:22;23.70;92.10
2389;DHT22;1205;47.984;7.668;2022-10-16T14:36:48;23.70;91.50
2389;DHT22;1205;47.984;7.668;2022-10-16T14:39:18;23.70;92.10
2389;DHT22;1205;47.984;7.668;2022-10-16T14:41:46;23.70;92.90
2389;DHT22;1205;47.984;7.668;2022-10-16T14:44:13;23.70;92.90
2389;DHT22;1205;47.984;7.668;2022-10-16T14:46:41;23.70;93.20
2389;DHT22;1205;47.984;7.668;2022-10-16T14:51:37;23.60;93.50
2389;DHT22;1205;47.984;7.668;2022-10-16T14:54:03;23.60;94.00
2389;DHT22;1205;47.984;7.668;2022-10-16T14:56:46;23.60;93.90
2389;DHT22;1205;47.984;7.668;2022-10-16T14:59:33;23.50;93.70
2389;DHT22;1205;47.984;7.668;2022-10-16T15:04:45;23.60;93.40
2389;DHT22;1205;47.984;7.668;2022-10-16T15:07:11;23.60;92.00
2389;DHT22;1205;47.984;7.668;2022-10-16T15:09:36;23.50;92.50
2389;DHT22;1205;47.984;7.668;2022-10-16T15:12:02;23.60;91.90
2389;DHT22;1205;47.984;7.668;2022-10-16T15:14:28;23.60;92.90
2389;DHT22;1205;47.984;7.668;2022-10-16T15:16:53;23.50;92.80
2389;DHT22;1205;47.984;7.668;2022-10-16T15:19:19;23.50;92.90
2389;DHT22;1205;47.984;7.668;2022-10-16T15:21:45;23.40;93.40
2389;DHT22;1205;47.984;7.668;2022-10-16T15:24:14;23.50;92.30
2389;DHT22;1205;47.984;7.668;2022-10-16T15:26:39;23.50;91.90
2389;DHT22;1205;47.984;7.668;2022-10-16T15:29:05;23.60;92.20
2389;DHT22;1205;47.984;7.668;2022-10-16T15:31:31;23.50;92.70
2389;DHT22;1205;47.984;7.668;2022-10-16T15:33:57;23.40;93.20
2389;DHT22;1205;47.984;7.668;2022-10-16T15:36:31;23.30;93.30
2389;DHT22;1205;47.984;7.668;2022-10-16T15:38:59;23.30;93.20
2389;DHT22;1205;47.984;7.668;2022-10-16T15:41:25;23.30;93.60
2389;DHT22;1205;47.984;7.668;2022-10-16T15:43:51;23.20;93.50
2389;DHT22;1205;47.984;7.668;2022-10-16T15:46:19;23.10;93.50
2389;DHT22;1205;47.984;7.668;2022-10-16T15:48:46;23.10;94.00
2389;DHT22;1205;47.984;7.668;2022-10-16T15:51:11;23.00;94.60
2389;DHT22;1205;47.984;7.668;2022-10-16T15:53:37;22.90;94.60
2389;DHT22;1205;47.984;7.668;2022-10-16T15:56:04;22.90;94.70
2389;DHT22;1205;47.984;7.668;2022-10-16T15:58:29;22.80;95.60
2389;DHT22;1205;47.984;7.668;2022-10-16T16:00:59;22.70;95.90
2389;DHT22;1205;47.984;7.668;2022-10-16T16:03:30;22.60;97.00
2389;DHT22;1205;47.984;7.668;2022-10-16T16:05:56;22.50;96.90
2389;DHT22;1205;47.984;7.668;2022-10-16T16:08:22;22.50;96.80
2389;DHT22;1205;47.984;7.668;2022-10-16T16:11:01;22.40;97.70
2389;DHT22;1205;47.984;7.668;2022-10-16T16:13:27;22.30;97.80
2389;DHT22;1205;47.984;7.668;2022-10-16T16:15:53;22.20;97.80
2389;DHT22;1205;47.984;7.668;2022-10-16T16:18:18;22.20;97.30
2389;DHT22;1205;47.984;7.668;2022-10-16T16:20:44;22.10;97.10
2389;DHT22;1205;47.984;7.668;2022-10-16T16:23:10;22.10;97.10
2389;DHT22;1205;47.984;7.668;2022-10-16T16:25:36;22.00;97.20
2389;DHT22;1205;47.984;7.668;2022-10-16T16:28:01;21.90;97.10
2389;DHT22;1205;47.984;7.668;2022-10-16T16:30:27;21.90;97.00
2389;DHT22;1205;47.984;7.668;2022-10-16T16:32:52;21.80;97.00
2389;DHT22;1205;47.984;7.668;2022-10-16T16:35:18;21.70;97.10
2389;DHT22;1205;47.984;7.668;2022-10-16T16:37:43;21.60;97.30
2389;DHT22;1205;47.984;7.668;2022-10-16T16:40:09;21.60;97.30
2389;DHT22;1205;47.984;7.668;2022-10-16T16:42:35;21.50;97.20
2389;DHT22;1205;47.984;7.668;2022-10-16T16:45:00;21.40;97.30
2389;DHT22;1205;47.984;7.668;2022-10-16T16:47:26;21.30;97.50
2389;DHT22;1205;47.984;7.668;2022-10-16T16:49:51;21.20;97.60
2389;DHT22;1205;47.984;7.668;2022-10-16T16:52:17;21.20;97.50
2389;DHT22;1205;47.984;7.668;2022-10-16T16:54:43;21.20;97.80
2389;DHT22;1205;47.984;7.668;2022-10-16T16:57:10;21.10;98.00
2389;DHT22;1205;47.984;7.668;2022-10-16T16:59:36;21.00;98.20
2389;DHT22;1205;47.984;7.668;2022-10-16T17:02:02;21.00;98.40
2389;DHT22;1205;47.984;7.668;2022-10-16T17:04:27;20.90;98.60
2389;DHT22;1205;47.984;7.668;2022-10-16T17:06:54;20.90;98.80
2389;DHT22;1205;47.984;7.668;2022-10-16T17:09:20;20.90;98.90
2389;DHT22;1205;47.984;7.668;2022-10-16T17:11:46;20.80;99.00
2389;DHT22;1205;47.984;7.668;2022-10-16T17:14:14;20.80;99.20
2389;DHT22;1205;47.984;7.668;2022-10-16T17:16:40;20.70;99.00
2389;DHT22;1205;47.984;7.668;2022-10-16T17:19:13;20.70;99.10
2389;DHT22;1205;47.984;7.668;2022-10-16T17:21:40;20.60;99.40
2389;DHT22;1205;47.984;7.668;2022-10-16T17:24:06;20.60;99.70
2389;DHT22;1205;47.984;7.668;2022-10-16T17:26:32;20.50;99.70
2389;DHT22;1205;47.984;7.668;2022-10-16T17:29:00;20.40;99.90
2389;DHT22;1205;47.984;7.668;2022-10-16T17:31:36;20.30;99.90
2389;DHT22;1205;47.984;7.668;2022-10-16T17:34:04;20.30;99.90
2389;DHT22;1205;47.984;7.668;2022-10-16T17:36:33;20.20;99.90
2389;DHT22;1205;47.984;7.668;2022-10-16T17:39:07;20.10;99.90
2389;DHT22;1205;47.984;7.668;2022-10-16T17:41:33;20.00;99.90
2389;DHT22;1205;47.984;7.668;2022-10-16T17:43:59;19.90;99.90
2389;DHT22;1205;47.984;7.668;2022-10-16T17:46:25;19.90;99.90
2389;DHT22;1205;47.984;7.668;2022-10-16T17:48:52;19.80;99.90
2389;DHT22;1205;47.984;7.668;2022-10-16T17:51:28;19.80;99.90
2389;DHT22;1205;47.984;7.668;2022-10-16T17:53:57;19.70;99.90
2389;DHT22;1205;47.984;7.668;2022-10-16T17:56:23;19.70;99.90
2389;DHT22;1205;47.984;7.668;2022-10-16T17:58:52;19.60;99.90
2389;DHT22;1205;47.984;7.668;2022-10-16T18:01:26;19.60;99.90
2389;DHT22;1205;47.984;7.668;2022-10-16T18:04:03;19.60;99.90
2389;DHT22;1205;47.984;7.668;2022-10-16T18:06:32;19.50;99.90